createdAt,value
2023-02-19T00:01:45.307Z,3.90
2023-02-19T00:04:19.054Z,3.90
2023-02-19T00:06:46.507Z,3.90
2023-02-19T00:09:14.624Z,3.80
2023-02-19T00:11:41.526Z,3.70
2023-02-19T00:14:08.603Z,3.70
2023-02-19T00:16:39.266Z,3.70
2023-02-19T00:19:14.724Z,3.60
2023-02-19T00:21:41.506Z,3.70
2023-02-19T00:24:08.576Z,3.60
2023-02-19T00:26:35.329Z,3.50
2023-02-19T00:29:02.166Z,3.50
2023-02-19T00:31:32.665Z,3.50
2023-02-19T00:34:01.228Z,3.50
2023-02-19T00:36:28.191Z,3.40
2023-02-19T00:38:54.967Z,3.40
2023-02-19T00:41:22.710Z,3.50
2023-02-19T00:43:59.152Z,3.50
2023-02-19T00:46:30.542Z,3.50
2023-02-19T00:48:57.585Z,3.50
2023-02-19T00:51:26.252Z,3.40
2023-02-19T00:53:52.981Z,3.40
2023-02-19T00:56:19.760Z,3.40
2023-02-19T00:58:46.744Z,3.40
2023-02-19T01:01:13.571Z,3.40
2023-02-19T01:03:40.387Z,3.40
2023-02-19T01:06:07.948Z,3.40
2023-02-19T01:08:35.019Z,3.40
2023-02-19T01:11:02.065Z,3.40
2023-02-19T01:13:29.012Z,3.20
2023-02-19T01:16:06.742Z,3.30
2023-02-19T01:18:33.730Z,3.30
2023-02-19T01:21:00.407Z,3.20
2023-02-19T01:23:27.204Z,3.20
2023-02-19T01:25:53.950Z,3.20
2023-02-19T01:28:20.798Z,3.20
2023-02-19T01:30:47.638Z,3.20
2023-02-19T01:33:14.370Z,3.30
2023-02-19T01:35:41.160Z,3.30
2023-02-19T01:38:08.434Z,3.30
2023-02-19T01:40:35.404Z,3.40
2023-02-19T01:43:03.679Z,3.40
2023-02-19T01:45:31.806Z,3.40
2023-02-19T01:48:04.231Z,3.40
2023-02-19T01:50:33.172Z,3.50
2023-02-19T01:53:00.239Z,3.50
2023-02-19T01:55:27.132Z,3.50
2023-02-19T01:57:54.318Z,3.50
2023-02-19T02:00:21.119Z,3.50
2023-02-19T02:02:51.283Z,3.50
2023-02-19T02:05:25.985Z,3.50
2023-02-19T02:08:11.253Z,3.50
2023-02-19T02:10:38.049Z,3.50
2023-02-19T02:13:04.791Z,3.50
2023-02-19T02:15:45.167Z,3.60
2023-02-19T02:18:40.473Z,3.60
2023-02-19T02:21:30.833Z,3.60
2023-02-19T02:24:35.927Z,3.60
2023-02-19T02:27:33.009Z,3.60
2023-02-19T02:30:14.876Z,3.60
2023-02-19T02:32:58.322Z,3.60
2023-02-19T02:35:30.551Z,3.60
2023-02-19T02:37:59.937Z,3.60
2023-02-19T02:40:26.712Z,3.50
2023-02-19T02:42:53.456Z,3.50
2023-02-19T02:45:38.150Z,3.60
2023-02-19T02:48:18.656Z,3.60
2023-02-19T02:51:14.362Z,3.60
2023-02-19T02:54:13.098Z,3.70
2023-02-19T02:56:41.272Z,3.70
2023-02-19T02:59:09.911Z,3.70
2023-02-19T03:01:56.998Z,3.70
2023-02-19T03:04:31.522Z,3.60
2023-02-19T03:06:58.269Z,3.70
2023-02-19T03:09:40.588Z,3.70
2023-02-19T03:12:29.012Z,3.70
2023-02-19T03:15:15.241Z,3.70
2023-02-19T03:18:03.789Z,3.70
2023-02-19T03:20:30.535Z,3.70
2023-02-19T03:22:57.259Z,3.70
2023-02-19T03:25:47.130Z,3.70
2023-02-19T03:28:16.127Z,3.70
2023-02-19T03:30:49.535Z,3.70
2023-02-19T03:33:18.739Z,3.70
2023-02-19T03:35:47.804Z,3.70
2023-02-19T03:38:36.780Z,3.60
2023-02-19T03:41:45.345Z,3.70
2023-02-19T03:44:46.261Z,3.70
2023-02-19T03:47:32.955Z,3.70
2023-02-19T03:50:17.507Z,3.60
2023-02-19T03:52:55.047Z,3.70
2023-02-19T03:55:30.818Z,3.70
2023-02-19T03:58:13.193Z,3.80
2023-02-19T04:01:00.184Z,3.80
2023-02-19T04:03:44.117Z,3.70
2023-02-19T04:06:26.252Z,3.70
2023-02-19T04:08:54.270Z,3.70
2023-02-19T04:11:21.132Z,3.80
2023-02-19T04:14:02.825Z,3.80
2023-02-19T04:16:29.796Z,3.80
2023-02-19T04:19:02.823Z,3.80
2023-02-19T04:21:30.524Z,3.80
2023-02-19T04:23:57.240Z,3.80
2023-02-19T04:26:23.972Z,3.90
2023-02-19T04:28:50.722Z,3.90
2023-02-19T04:31:17.725Z,3.90
2023-02-19T04:33:44.543Z,4.00
2023-02-19T04:36:11.800Z,4.00
2023-02-19T04:38:38.590Z,4.00
2023-02-19T04:41:05.476Z,4.00
2023-02-19T04:43:32.305Z,4.00
2023-02-19T04:46:02.576Z,4.00
2023-02-19T04:48:29.388Z,4.00
2023-02-19T04:50:56.490Z,4.00
2023-02-19T04:53:23.444Z,4.00
2023-02-19T04:55:53.187Z,4.10
2023-02-19T04:58:20.653Z,4.10
2023-02-19T05:00:47.436Z,4.00
2023-02-19T05:03:14.193Z,4.00
2023-02-19T05:05:40.878Z,4.00
2023-02-19T05:08:07.623Z,4.00
2023-02-19T05:10:34.908Z,4.00
2023-02-19T05:13:01.650Z,3.90
2023-02-19T05:15:28.390Z,3.90
2023-02-19T05:17:55.088Z,3.90
2023-02-19T05:20:23.061Z,3.90
2023-02-19T05:22:49.850Z,4.00
2023-02-19T05:25:16.634Z,4.00
2023-02-19T05:27:43.481Z,4.00
2023-02-19T05:30:10.852Z,4.10
2023-02-19T05:32:38.001Z,4.10
2023-02-19T05:35:04.818Z,4.10
2023-02-19T05:37:31.576Z,4.10
2023-02-19T05:39:58.372Z,4.10
2023-02-19T05:42:25.092Z,4.10
2023-02-19T05:44:51.841Z,4.10
2023-02-19T05:47:18.557Z,4.20
2023-02-19T05:49:45.259Z,4.20
2023-02-19T05:52:11.934Z,4.10
2023-02-19T05:54:38.767Z,4.10
2023-02-19T05:57:05.554Z,4.10
2023-02-19T05:59:32.279Z,4.10
2023-02-19T06:01:59.086Z,4.10
2023-02-19T06:04:25.793Z,4.10
2023-02-19T06:06:52.461Z,4.20
2023-02-19T06:09:19.194Z,4.30
2023-02-19T06:11:45.954Z,4.30
2023-02-19T06:14:13.685Z,4.20
2023-02-19T06:16:40.446Z,4.30
2023-02-19T06:19:07.221Z,4.20
2023-02-19T06:21:34.063Z,4.30
2023-02-19T06:24:05.512Z,4.30
2023-02-19T06:26:32.257Z,4.30
2023-02-19T06:28:59.078Z,4.30
2023-02-19T06:31:26.058Z,4.20
2023-02-19T06:33:52.928Z,4.20
2023-02-19T06:36:20.349Z,4.20
2023-02-19T06:38:47.116Z,4.30
2023-02-19T06:41:14.549Z,4.30
2023-02-19T06:43:41.427Z,4.20
2023-02-19T06:46:08.412Z,4.30
2023-02-19T06:48:35.216Z,4.20
2023-02-19T06:51:02.056Z,4.20
2023-02-19T06:53:28.990Z,4.30
2023-02-19T06:56:03.129Z,4.20
2023-02-19T06:58:29.967Z,4.30
2023-02-19T07:00:56.768Z,4.40
2023-02-19T07:03:23.616Z,4.40
2023-02-19T07:05:50.439Z,4.40
2023-02-19T07:08:17.485Z,4.40
2023-02-19T07:10:45.247Z,4.40
2023-02-19T07:13:12.098Z,4.60
2023-02-19T07:15:38.824Z,4.50
2023-02-19T07:18:07.637Z,4.50
2023-02-19T07:20:34.424Z,4.60
2023-02-19T07:23:01.117Z,4.60
2023-02-19T07:25:28.021Z,4.60
2023-02-19T07:27:54.760Z,4.60
2023-02-19T07:30:21.484Z,4.60
2023-02-19T07:32:48.310Z,4.70
2023-02-19T07:35:15.087Z,4.70
2023-02-19T07:37:41.922Z,4.80
2023-02-19T07:40:08.950Z,4.80
2023-02-19T07:42:35.698Z,4.80
2023-02-19T07:45:02.431Z,4.80
2023-02-19T07:47:29.534Z,4.80
2023-02-19T07:49:56.340Z,4.80
2023-02-19T07:52:23.152Z,4.90
2023-02-19T07:54:49.938Z,5.00
2023-02-19T07:57:16.629Z,5.00
2023-02-19T07:59:43.376Z,5.00
2023-02-19T08:02:41.197Z,5.00
2023-02-19T08:05:08.101Z,5.00
2023-02-19T08:07:35.144Z,5.00
2023-02-19T08:10:20.741Z,5.10
2023-02-19T08:13:16.499Z,5.10
2023-02-19T08:15:43.387Z,5.20
2023-02-19T08:18:10.149Z,5.20
2023-02-19T08:20:36.954Z,5.30
2023-02-19T08:23:03.740Z,5.20
2023-02-19T08:25:30.629Z,5.30
2023-02-19T08:27:57.436Z,5.40
2023-02-19T08:30:24.367Z,5.40
2023-02-19T08:32:51.211Z,5.40
2023-02-19T08:35:18.007Z,5.50
2023-02-19T08:37:44.798Z,5.60
2023-02-19T08:40:11.777Z,5.60
2023-02-19T08:42:38.555Z,5.60
2023-02-19T08:45:05.727Z,5.70
2023-02-19T08:47:34.457Z,5.70
2023-02-19T08:50:01.181Z,5.70
2023-02-19T08:52:27.996Z,5.80
2023-02-19T08:54:54.813Z,5.90
2023-02-19T08:57:21.546Z,6.00
2023-02-19T08:59:48.323Z,6.10
2023-02-19T09:02:15.046Z,5.90
2023-02-19T09:04:41.758Z,6.00
2023-02-19T09:07:11.095Z,6.00
2023-02-19T09:09:38.197Z,6.00
2023-02-19T09:12:06.384Z,6.10
2023-02-19T09:14:34.567Z,6.20
2023-02-19T09:17:01.789Z,6.20
2023-02-19T09:19:28.871Z,6.20
2023-02-19T09:21:55.707Z,6.30
2023-02-19T09:24:22.574Z,6.40
2023-02-19T09:26:50.200Z,6.30
2023-02-19T09:29:17.029Z,6.40
2023-02-19T09:31:43.888Z,6.40
2023-02-19T09:34:11.870Z,6.40
2023-02-19T09:36:39.160Z,6.50
2023-02-19T09:39:07.632Z,6.60
2023-02-19T09:41:36.172Z,6.60
2023-02-19T09:44:04.955Z,6.60
2023-02-19T09:46:46.148Z,6.60
2023-02-19T09:49:17.593Z,6.60
2023-02-19T09:51:49.741Z,6.70
2023-02-19T09:54:27.512Z,6.60
2023-02-19T09:56:55.211Z,6.70
2023-02-19T09:59:29.378Z,6.70
2023-02-19T10:01:59.746Z,6.70
2023-02-19T10:04:26.917Z,6.70
2023-02-19T10:06:53.759Z,6.80
2023-02-19T10:09:26.836Z,6.90
2023-02-19T10:11:56.779Z,6.90
2023-02-19T10:14:36.919Z,6.90
2023-02-19T10:17:04.763Z,7.00
2023-02-19T10:19:32.786Z,7.10
2023-02-19T10:22:00.163Z,7.10
2023-02-19T10:24:28.355Z,7.20
2023-02-19T10:26:55.289Z,7.30
2023-02-19T10:29:22.346Z,7.30
2023-02-19T10:31:49.276Z,7.30
2023-02-19T10:34:22.141Z,7.40
2023-02-19T10:36:50.980Z,7.50
2023-02-19T10:39:36.127Z,7.50
2023-02-19T10:42:02.936Z,7.60
2023-02-19T10:44:31.074Z,7.70
2023-02-19T10:46:58.838Z,7.80
2023-02-19T10:49:31.526Z,7.80
2023-02-19T10:52:18.003Z,7.90
2023-02-19T10:54:45.725Z,8.00
2023-02-19T10:57:15.452Z,8.10
2023-02-19T10:59:53.014Z,8.20
2023-02-19T11:02:20.691Z,8.20
2023-02-19T11:05:05.130Z,8.30
2023-02-19T11:07:31.863Z,8.30
2023-02-19T11:09:58.682Z,8.40
2023-02-19T11:12:30.134Z,8.50
2023-02-19T11:14:57.082Z,8.50
2023-02-19T11:17:27.389Z,8.50
2023-02-19T11:20:05.666Z,8.50
2023-02-19T11:22:42.452Z,8.50
2023-02-19T11:25:15.474Z,8.40
2023-02-19T11:28:04.006Z,8.50
2023-02-19T11:30:31.870Z,8.50
2023-02-19T11:33:16.468Z,8.40
2023-02-19T11:35:43.892Z,8.40
2023-02-19T11:38:12.729Z,8.40
2023-02-19T11:40:41.657Z,8.40
2023-02-19T11:43:11.435Z,8.40
2023-02-19T11:45:52.332Z,8.50
2023-02-19T11:48:41.961Z,8.40
2023-02-19T11:51:28.265Z,8.40
2023-02-19T11:54:07.933Z,8.40
2023-02-19T11:56:36.566Z,8.50
2023-02-19T11:59:24.599Z,8.60
2023-02-19T12:02:01.581Z,8.60
2023-02-19T12:04:40.490Z,8.60
2023-02-19T12:07:23.127Z,8.60
2023-02-19T12:10:08.587Z,8.60
2023-02-19T12:12:50.319Z,8.60
2023-02-19T12:15:52.899Z,8.70
2023-02-19T12:18:44.530Z,8.80
2023-02-19T12:21:26.563Z,8.80
2023-02-19T12:24:08.262Z,8.90
2023-02-19T12:26:50.053Z,8.90
2023-02-19T12:29:29.004Z,8.90
2023-02-19T12:31:58.792Z,8.90
2023-02-19T12:34:37.520Z,8.90
2023-02-19T12:37:16.192Z,8.90
2023-02-19T12:40:01.812Z,8.90
2023-02-19T12:42:59.146Z,8.90
2023-02-19T12:45:36.123Z,8.90
2023-02-19T12:48:18.991Z,8.90
2023-02-19T12:50:46.046Z,9.00
2023-02-19T12:53:37.346Z,9.10
2023-02-19T12:56:06.619Z,9.00
2023-02-19T12:58:49.635Z,9.00
2023-02-19T13:01:42.328Z,9.20
2023-02-19T13:04:24.358Z,9.30
2023-02-19T13:07:07.279Z,9.40
2023-02-19T13:09:56.079Z,9.50
2023-02-19T13:12:28.747Z,9.60
2023-02-19T13:15:13.534Z,9.80
2023-02-19T13:17:53.939Z,9.90
2023-02-19T13:20:25.123Z,10.00
2023-02-19T13:23:36.294Z,10.10
2023-02-19T13:26:40.331Z,10.10
2023-02-19T13:29:25.490Z,10.10
2023-02-19T13:32:13.156Z,10.10
2023-02-19T13:35:17.935Z,10.20
2023-02-19T13:37:44.664Z,10.20
2023-02-19T13:40:20.568Z,10.10
2023-02-19T13:42:55.097Z,10.20
2023-02-19T13:45:23.345Z,10.20
2023-02-19T13:47:57.351Z,10.20
2023-02-19T13:50:31.640Z,10.10
2023-02-19T13:52:59.540Z,10.10
2023-02-19T13:55:52.410Z,10.10
2023-02-19T13:58:37.917Z,10.10
2023-02-19T14:01:11.883Z,9.90
2023-02-19T14:03:47.495Z,9.90
2023-02-19T14:06:14.469Z,9.90
2023-02-19T14:08:56.214Z,9.90
2023-02-19T14:11:42.905Z,9.70
2023-02-19T14:14:39.343Z,9.80
2023-02-19T14:17:08.935Z,9.80
2023-02-19T14:19:41.814Z,9.80
2023-02-19T14:22:45.749Z,9.80
2023-02-19T14:25:18.313Z,9.90
2023-02-19T14:27:45.141Z,9.90
2023-02-19T14:30:12.414Z,9.80
2023-02-19T14:32:41.203Z,9.80
2023-02-19T14:35:21.563Z,9.90
2023-02-19T14:37:49.915Z,9.90
2023-02-19T14:40:43.879Z,9.80
2023-02-19T14:43:13.640Z,9.90
2023-02-19T14:45:42.516Z,9.80
2023-02-19T14:48:18.753Z,9.70
2023-02-19T14:50:47.835Z,9.60
2023-02-19T14:53:14.550Z,9.50
2023-02-19T14:55:42.695Z,9.40
2023-02-19T14:58:15.700Z,9.50
2023-02-19T15:00:42.824Z,9.50
2023-02-19T15:03:27.320Z,9.50
2023-02-19T15:06:00.243Z,9.50
2023-02-19T15:08:58.188Z,9.50
2023-02-19T15:11:26.164Z,9.50
2023-02-19T15:13:55.738Z,9.40
2023-02-19T15:16:25.611Z,9.40
2023-02-19T15:18:52.594Z,9.40
2023-02-19T15:21:24.895Z,9.50
2023-02-19T15:23:54.446Z,9.20
2023-02-19T15:26:27.515Z,9.10
2023-02-19T15:29:01.697Z,9.00
2023-02-19T15:31:28.623Z,9.00
2023-02-19T15:33:55.456Z,9.00
2023-02-19T15:36:27.806Z,9.00
2023-02-19T15:38:56.090Z,8.90
2023-02-19T15:41:23.342Z,8.80
2023-02-19T15:44:12.466Z,8.80
2023-02-19T15:46:39.235Z,8.80
2023-02-19T15:49:31.076Z,8.90
2023-02-19T15:52:00.916Z,8.90
2023-02-19T15:54:30.634Z,8.90
2023-02-19T15:57:00.055Z,8.90
2023-02-19T15:59:51.866Z,8.80
2023-02-19T16:02:18.634Z,8.60
2023-02-19T16:04:45.546Z,8.60
2023-02-19T16:07:22.815Z,8.60
2023-02-19T16:09:49.700Z,8.70
2023-02-19T16:12:23.891Z,8.80
2023-02-19T16:14:51.086Z,8.80
2023-02-19T16:17:20.814Z,8.70
2023-02-19T16:19:48.788Z,8.70
2023-02-19T16:22:18.516Z,8.60
2023-02-19T16:24:46.720Z,8.60
2023-02-19T16:27:14.035Z,8.50
2023-02-19T16:29:40.840Z,8.40
2023-02-19T16:32:08.772Z,8.40
2023-02-19T16:34:44.247Z,8.30
2023-02-19T16:37:41.180Z,8.30
2023-02-19T16:40:07.919Z,8.30
2023-02-19T16:42:35.605Z,8.30
2023-02-19T16:45:02.433Z,8.30
2023-02-19T16:47:33.191Z,8.20
2023-02-19T16:50:01.439Z,8.10
2023-02-19T16:52:28.516Z,8.10
2023-02-19T16:54:55.348Z,8.00
2023-02-19T16:57:22.140Z,8.00
2023-02-19T16:59:48.901Z,8.00
2023-02-19T17:02:18.446Z,7.90
2023-02-19T17:04:46.270Z,8.00
2023-02-19T17:07:14.752Z,8.00
2023-02-19T17:09:41.604Z,8.10
2023-02-19T17:12:12.086Z,8.00
2023-02-19T17:14:38.828Z,8.00
2023-02-19T17:17:05.605Z,8.00
2023-02-19T17:19:32.278Z,7.90
2023-02-19T17:21:58.993Z,7.90
2023-02-19T17:24:25.822Z,7.90
2023-02-19T17:26:52.737Z,7.90
2023-02-19T17:29:20.204Z,7.90
2023-02-19T17:31:47.108Z,7.90
2023-02-19T17:34:13.916Z,7.90
2023-02-19T17:36:42.894Z,7.90
2023-02-19T17:39:15.064Z,7.90
2023-02-19T17:41:41.950Z,7.80
2023-02-19T17:44:08.832Z,7.90
2023-02-19T17:46:35.810Z,7.70
2023-02-19T17:49:02.571Z,7.70
2023-02-19T17:51:29.396Z,7.70
2023-02-19T17:53:56.240Z,7.70
2023-02-19T17:56:25.463Z,7.70
2023-02-19T17:58:52.381Z,7.60
2023-02-19T18:01:19.177Z,7.60
2023-02-19T18:03:45.979Z,7.50
2023-02-19T18:06:12.750Z,7.50
2023-02-19T18:08:39.643Z,7.40
2023-02-19T18:11:06.868Z,7.40
2023-02-19T18:13:33.578Z,7.40
2023-02-19T18:16:00.390Z,7.40
2023-02-19T18:18:27.128Z,7.40
2023-02-19T18:20:53.889Z,7.30
2023-02-19T18:23:20.735Z,7.30
2023-02-19T18:25:47.515Z,7.30
2023-02-19T18:28:15.058Z,7.30
2023-02-19T18:30:42.013Z,7.20
2023-02-19T18:33:11.004Z,7.20
2023-02-19T18:35:38.529Z,7.20
2023-02-19T18:38:05.324Z,7.10
2023-02-19T18:40:31.988Z,7.10
2023-02-19T18:42:58.924Z,7.20
2023-02-19T18:45:25.987Z,7.10
2023-02-19T18:47:52.713Z,7.10
2023-02-19T18:50:19.890Z,7.10
2023-02-19T18:52:47.068Z,7.10
2023-02-19T18:55:13.863Z,7.10
2023-02-19T18:57:40.672Z,7.00
2023-02-19T19:00:08.209Z,7.00
2023-02-19T19:02:48.322Z,7.00
2023-02-19T19:05:22.673Z,7.00
2023-02-19T19:07:54.127Z,7.00
2023-02-19T19:10:20.999Z,7.00
2023-02-19T19:12:47.931Z,7.00
2023-02-19T19:15:18.055Z,7.00
2023-02-19T19:17:45.182Z,6.90
2023-02-19T19:20:12.197Z,6.80
2023-02-19T19:22:38.982Z,6.70
2023-02-19T19:25:06.265Z,6.70
2023-02-19T19:27:33.049Z,6.70
2023-02-19T19:29:59.846Z,6.70
2023-02-19T19:32:26.616Z,6.80
2023-02-19T19:34:53.484Z,6.70
2023-02-19T19:37:20.251Z,6.70
2023-02-19T19:39:47.030Z,6.70
2023-02-19T19:42:13.983Z,6.80
2023-02-19T19:44:40.740Z,6.80
2023-02-19T19:47:07.481Z,6.80
2023-02-19T19:49:34.225Z,6.70
2023-02-19T19:52:01.357Z,6.80
2023-02-19T19:54:28.518Z,6.70
2023-02-19T19:56:55.264Z,6.60
2023-02-19T19:59:23.071Z,6.60
2023-02-19T20:01:53.422Z,6.50
2023-02-19T20:04:21.255Z,6.60
2023-02-19T20:06:48.037Z,6.60
2023-02-19T20:09:15.032Z,6.60
2023-02-19T20:11:49.515Z,6.60
2023-02-19T20:14:16.828Z,6.60
2023-02-19T20:16:44.844Z,6.60
2023-02-19T20:19:11.705Z,6.60
2023-02-19T20:21:38.464Z,6.60
2023-02-19T20:24:05.529Z,6.60
2023-02-19T20:26:32.685Z,6.60
2023-02-19T20:28:59.438Z,6.60
2023-02-19T20:31:26.670Z,6.60
2023-02-19T20:33:53.558Z,6.60
2023-02-19T20:36:20.781Z,6.50
2023-02-19T20:38:51.266Z,6.50
2023-02-19T20:41:17.966Z,6.50
2023-02-19T20:43:44.868Z,6.40
2023-02-19T20:46:12.050Z,6.50
2023-02-19T20:48:39.352Z,6.50
2023-02-19T20:51:06.164Z,6.50
2023-02-19T20:53:32.980Z,6.40
2023-02-19T20:55:59.909Z,6.50
2023-02-19T20:58:26.753Z,6.50
2023-02-19T21:00:54.299Z,6.40
2023-02-19T21:03:21.419Z,6.30
2023-02-19T21:05:48.340Z,6.30
2023-02-19T21:08:17.281Z,6.20
2023-02-19T21:10:45.531Z,6.20
2023-02-19T21:13:12.620Z,6.20
2023-02-19T21:15:39.362Z,6.10
2023-02-19T21:18:06.199Z,6.10
2023-02-19T21:20:33.102Z,6.10
2023-02-19T21:22:59.875Z,6.10
2023-02-19T21:25:27.137Z,6.10
2023-02-19T21:27:53.923Z,6.10
2023-02-19T21:30:20.873Z,6.10
2023-02-19T21:32:47.649Z,6.10
2023-02-19T21:35:14.466Z,6.10
2023-02-19T21:37:44.389Z,6.10
2023-02-19T21:40:12.348Z,6.20
2023-02-19T21:42:39.102Z,6.20
2023-02-19T21:45:06.249Z,6.20
2023-02-19T21:47:32.970Z,6.20
2023-02-19T21:49:59.774Z,6.20
2023-02-19T21:52:27.062Z,6.20
2023-02-19T21:54:53.855Z,6.10
2023-02-19T21:57:20.672Z,6.20
2023-02-19T21:59:47.425Z,6.20
2023-02-19T22:02:14.437Z,6.20
2023-02-19T22:04:41.175Z,6.10
2023-02-19T22:07:07.897Z,6.10
2023-02-19T22:09:34.912Z,6.10
2023-02-19T22:12:01.581Z,6.10
2023-02-19T22:14:28.294Z,6.10
2023-02-19T22:16:55.072Z,6.10
2023-02-19T22:19:21.823Z,6.10
2023-02-19T22:21:48.599Z,6.00
2023-02-19T22:24:19.837Z,6.00
2023-02-19T22:26:47.698Z,6.00
2023-02-19T22:29:15.043Z,6.00
2023-02-19T22:31:41.914Z,5.90
2023-02-19T22:34:09.144Z,5.90
2023-02-19T22:36:38.952Z,5.90
2023-02-19T22:39:08.757Z,5.80
2023-02-19T22:41:35.570Z,5.80
2023-02-19T22:44:02.466Z,5.80
2023-02-19T22:46:30.224Z,5.80
2023-02-19T22:48:57.242Z,5.80
2023-02-19T22:51:24.231Z,5.80
2023-02-19T22:53:55.508Z,5.80
2023-02-19T22:56:24.298Z,5.90
2023-02-19T22:58:51.263Z,5.80
2023-02-19T23:01:18.342Z,5.80
2023-02-19T23:03:56.012Z,5.80
2023-02-19T23:06:33.346Z,5.80
2023-02-19T23:09:03.769Z,5.80
2023-02-19T23:11:33.323Z,5.70
2023-02-19T23:14:00.108Z,5.70
2023-02-19T23:16:26.945Z,5.70
2023-02-19T23:18:53.904Z,5.80
2023-02-19T23:21:20.946Z,5.70
2023-02-19T23:23:47.669Z,5.80
2023-02-19T23:26:15.236Z,5.80
2023-02-19T23:28:42.740Z,5.80
2023-02-19T23:31:09.776Z,5.80
2023-02-19T23:33:36.581Z,5.80
2023-02-19T23:36:03.606Z,5.70
2023-02-19T23:38:30.379Z,5.70
2023-02-19T23:40:57.148Z,5.70
2023-02-19T23:43:23.951Z,5.60
2023-02-19T23:45:50.793Z,5.60
2023-02-19T23:48:17.566Z,5.50
2023-02-19T23:50:44.247Z,5.50
2023-02-19T23:53:11.061Z,5.50
2023-02-19T23:55:37.827Z,5.60
2023-02-19T23:58:04.599Z,5.60
